sensor_id;sensor_type;location;lat;lon;timestamp;P1;durP1;ratioP1;P2;durP2;ratioP2
43819;SDS011;67762;52.476;6.046;2023-06-22T00:02:17;1999.90;;;999.90;;
43819;SDS011;67762;52.476;6.046;2023-06-22T00:04:43;1999.90;;;999.90;;
43819;SDS011;67762;52.476;6.046;2023-06-22T00:07:09;1999.90;;;999.90;;
43819;SDS011;67762;52.476;6.046;2023-06-22T00:09:35;1999.90;;;999.90;;
43819;SDS011;67762;52.476;6.046;2023-06-22T00:12:01;1999.90;;;999.90;;
43819;SDS011;67762;52.476;6.046;2023-06-22T00:14:27;1999.90;;;999.90;;
43819;SDS011;67762;52.476;6.046;2023-06-22T00:16:53;1999.90;;;999.90;;
43819;SDS011;67762;52.476;6.046;2023-06-22T00:19:20;1999.90;;;999.90;;
43819;SDS011;67762;52.476;6.046;2023-06-22T00:21:47;1999.90;;;999.90;;
43819;SDS011;67762;52.476;6.046;2023-06-22T00:24:18;1999.90;;;999.90;;
43819;SDS011;67762;52.476;6.046;2023-06-22T00:26:50;1999.90;;;999.90;;
43819;SDS011;67762;52.476;6.046;2023-06-22T00:29:16;1999.90;;;999.90;;
43819;SDS011;67762;52.476;6.046;2023-06-22T00:31:42;1999.90;;;999.90;;
43819;SDS011;67762;52.476;6.046;2023-06-22T00:34:08;1999.90;;;999.90;;
43819;SDS011;67762;52.476;6.046;2023-06-22T00:36:34;1999.90;;;999.90;;
43819;SDS011;67762;52.476;6.046;2023-06-22T00:39:02;1999.90;;;999.90;;
43819;SDS011;67762;52.476;6.046;2023-06-22T00:41:29;1999.90;;;999.90;;
43819;SDS011;67762;52.476;6.046;2023-06-22T00:43:55;1999.90;;;999.90;;
43819;SDS011;67762;52.476;6.046;2023-06-22T00:46:21;1999.90;;;999.90;;
43819;SDS011;67762;52.476;6.046;2023-06-22T00:48:48;1999.90;;;999.90;;
43819;SDS011;67762;52.476;6.046;2023-06-22T00:51:14;1999.90;;;999.90;;
43819;SDS011;67762;52.476;6.046;2023-06-22T00:53:40;1999.90;;;999.90;;
43819;SDS011;67762;52.476;6.046;2023-06-22T00:56:09;1999.90;;;999.90;;
43819;SDS011;67762;52.476;6.046;2023-06-22T00:58:37;1999.90;;;999.90;;
43819;SDS011;67762;52.476;6.046;2023-06-22T01:01:06;1999.90;;;999.90;;
43819;SDS011;67762;52.476;6.046;2023-06-22T01:03:32;1999.90;;;999.90;;
43819;SDS011;67762;52.476;6.046;2023-06-22T01:06:00;1999.90;;;999.90;;
43819;SDS011;67762;52.476;6.046;2023-06-22T01:08:46;1999.90;;;999.90;;
43819;SDS011;67762;52.476;6.046;2023-06-22T01:11:24;1999.90;;;999.90;;
43819;SDS011;67762;52.476;6.046;2023-06-22T01:14:11;1999.90;;;999.90;;
43819;SDS011;67762;52.476;6.046;2023-06-22T01:16:41;1999.90;;;999.90;;
43819;SDS011;67762;52.476;6.046;2023-06-22T01:21:40;1999.90;;;999.90;;
43819;SDS011;67762;52.476;6.046;2023-06-22T01:26:42;1999.90;;;999.90;;
43819;SDS011;67762;52.476;6.046;2023-06-22T01:31:44;1999.90;;;999.90;;
43819;SDS011;67762;52.476;6.046;2023-06-22T01:34:11;1999.90;;;999.90;;
43819;SDS011;67762;52.476;6.046;2023-06-22T01:36:38;1999.90;;;999.90;;
43819;SDS011;67762;52.476;6.046;2023-06-22T01:39:05;1999.90;;;999.90;;
43819;SDS011;67762;52.476;6.046;2023-06-22T01:41:33;1999.90;;;999.90;;
43819;SDS011;67762;52.476;6.046;2023-06-22T01:44:00;1999.90;;;999.90;;
43819;SDS011;67762;52.476;6.046;2023-06-22T01:46:26;1999.90;;;999.90;;
43819;SDS011;67762;52.476;6.046;2023-06-22T01:48:52;1999.90;;;999.90;;
43819;SDS011;67762;52.476;6.046;2023-06-22T01:51:18;1999.90;;;999.90;;
43819;SDS011;67762;52.476;6.046;2023-06-22T01:53:44;1999.90;;;999.90;;
43819;SDS011;67762;52.476;6.046;2023-06-22T01:56:11;1999.90;;;999.90;;
43819;SDS011;67762;52.476;6.046;2023-06-22T01:58:39;1999.90;;;999.90;;
43819;SDS011;67762;52.476;6.046;2023-06-22T02:01:14;1999.90;;;999.90;;
43819;SDS011;67762;52.476;6.046;2023-06-22T02:03:52;1999.90;;;999.90;;
43819;SDS011;67762;52.476;6.046;2023-06-22T02:06:30;1999.90;;;999.90;;
43819;SDS011;67762;52.476;6.046;2023-06-22T02:09:02;1999.90;;;999.90;;
43819;SDS011;67762;52.476;6.046;2023-06-22T02:11:34;1999.90;;;999.90;;
43819;SDS011;67762;52.476;6.046;2023-06-22T02:14:02;1999.90;;;999.90;;
43819;SDS011;67762;52.476;6.046;2023-06-22T02:16:28;1999.90;;;999.90;;
43819;SDS011;67762;52.476;6.046;2023-06-22T02:18:56;1999.90;;;999.90;;
43819;SDS011;67762;52.476;6.046;2023-06-22T02:21:27;1999.90;;;999.90;;
43819;SDS011;67762;52.476;6.046;2023-06-22T02:23:53;1999.90;;;999.90;;
43819;SDS011;67762;52.476;6.046;2023-06-22T02:26:18;1999.90;;;999.90;;
43819;SDS011;67762;52.476;6.046;2023-06-22T02:28:44;1999.90;;;999.90;;
43819;SDS011;67762;52.476;6.046;2023-06-22T02:31:11;1999.90;;;999.90;;
43819;SDS011;67762;52.476;6.046;2023-06-22T02:33:37;1999.90;;;999.90;;
43819;SDS011;67762;52.476;6.046;2023-06-22T02:36:03;1999.90;;;999.90;;
43819;SDS011;67762;52.476;6.046;2023-06-22T02:38:31;1999.90;;;999.90;;
43819;SDS011;67762;52.476;6.046;2023-06-22T02:40:58;1999.90;;;999.90;;
43819;SDS011;67762;52.476;6.046;2023-06-22T02:43:24;1999.90;;;999.90;;
43819;SDS011;67762;52.476;6.046;2023-06-22T02:45:50;1999.90;;;999.90;;
43819;SDS011;67762;52.476;6.046;2023-06-22T02:48:16;1999.90;;;999.90;;
43819;SDS011;67762;52.476;6.046;2023-06-22T02:50:42;1999.90;;;999.90;;
43819;SDS011;67762;52.476;6.046;2023-06-22T02:53:07;1999.90;;;999.90;;
43819;SDS011;67762;52.476;6.046;2023-06-22T02:55:36;1999.90;;;999.90;;
43819;SDS011;67762;52.476;6.046;2023-06-22T02:58:05;1999.90;;;999.90;;
43819;SDS011;67762;52.476;6.046;2023-06-22T03:00:33;1999.90;;;999.90;;
43819;SDS011;67762;52.476;6.046;2023-06-22T03:02:59;1999.90;;;999.90;;
43819;SDS011;67762;52.476;6.046;2023-06-22T03:05:25;1999.90;;;999.90;;
43819;SDS011;67762;52.476;6.046;2023-06-22T03:07:51;1999.90;;;999.90;;
43819;SDS011;67762;52.476;6.046;2023-06-22T03:10:17;1999.90;;;999.90;;
43819;SDS011;67762;52.476;6.046;2023-06-22T03:12:43;1999.90;;;999.90;;
43819;SDS011;67762;52.476;6.046;2023-06-22T03:15:10;1999.90;;;999.90;;
43819;SDS011;67762;52.476;6.046;2023-06-22T03:17:37;1999.90;;;999.90;;
43819;SDS011;67762;52.476;6.046;2023-06-22T03:20:07;1999.90;;;999.90;;
43819;SDS011;67762;52.476;6.046;2023-06-22T03:22:35;1999.90;;;999.90;;
43819;SDS011;67762;52.476;6.046;2023-06-22T03:25:05;1999.90;;;999.90;;
43819;SDS011;67762;52.476;6.046;2023-06-22T03:27:38;1999.90;;;999.90;;
43819;SDS011;67762;52.476;6.046;2023-06-22T03:30:06;1999.90;;;999.90;;
43819;SDS011;67762;52.476;6.046;2023-06-22T03:32:34;1999.90;;;999.90;;
43819;SDS011;67762;52.476;6.046;2023-06-22T03:34:59;1999.90;;;999.90;;
43819;SDS011;67762;52.476;6.046;2023-06-22T03:37:26;1999.90;;;999.90;;
43819;SDS011;67762;52.476;6.046;2023-06-22T03:39:52;1999.90;;;999.90;;
43819;SDS011;67762;52.476;6.046;2023-06-22T03:42:19;1999.90;;;999.90;;
43819;SDS011;67762;52.476;6.046;2023-06-22T03:44:45;1999.90;;;999.90;;
43819;SDS011;67762;52.476;6.046;2023-06-22T03:47:11;1999.90;;;999.90;;
43819;SDS011;67762;52.476;6.046;2023-06-22T03:49:37;1999.90;;;999.90;;
43819;SDS011;67762;52.476;6.046;2023-06-22T03:52:03;1999.90;;;999.90;;
43819;SDS011;67762;52.476;6.046;2023-06-22T03:54:30;1999.90;;;999.90;;
43819;SDS011;67762;52.476;6.046;2023-06-22T03:56:56;1999.90;;;999.90;;
43819;SDS011;67762;52.476;6.046;2023-06-22T03:59:23;1999.90;;;999.90;;
43819;SDS011;67762;52.476;6.046;2023-06-22T04:01:49;1999.90;;;999.90;;
43819;SDS011;67762;52.476;6.046;2023-06-22T04:04:15;1999.90;;;999.90;;
43819;SDS011;67762;52.476;6.046;2023-06-22T04:06:42;1999.90;;;999.90;;
43819;SDS011;67762;52.476;6.046;2023-06-22T04:09:08;1999.90;;;999.90;;
43819;SDS011;67762;52.476;6.046;2023-06-22T04:11:33;1999.90;;;999.90;;
43819;SDS011;67762;52.476;6.046;2023-06-22T04:13:59;1999.90;;;999.90;;
43819;SDS011;67762;52.476;6.046;2023-06-22T04:16:25;1999.90;;;999.90;;
43819;SDS011;67762;52.476;6.046;2023-06-22T04:18:51;1999.90;;;999.90;;
43819;SDS011;67762;52.476;6.046;2023-06-22T04:21:17;1999.90;;;999.90;;
43819;SDS011;67762;52.476;6.046;2023-06-22T04:23:45;1999.90;;;999.90;;
43819;SDS011;67762;52.476;6.046;2023-06-22T04:26:11;1999.90;;;999.90;;
43819;SDS011;67762;52.476;6.046;2023-06-22T04:28:39;1999.90;;;999.90;;
43819;SDS011;67762;52.476;6.046;2023-06-22T04:31:04;1999.90;;;999.90;;
43819;SDS011;67762;52.476;6.046;2023-06-22T04:33:30;1999.90;;;999.90;;
43819;SDS011;67762;52.476;6.046;2023-06-22T04:35:56;1999.90;;;999.90;;
43819;SDS011;67762;52.476;6.046;2023-06-22T04:38:22;1999.90;;;999.90;;
43819;SDS011;67762;52.476;6.046;2023-06-22T04:40:48;1999.90;;;999.90;;
43819;SDS011;67762;52.476;6.046;2023-06-22T04:43:14;1999.90;;;999.90;;
43819;SDS011;67762;52.476;6.046;2023-06-22T04:45:40;1999.90;;;999.90;;
43819;SDS011;67762;52.476;6.046;2023-06-22T04:48:06;1999.90;;;999.90;;
43819;SDS011;67762;52.476;6.046;2023-06-22T04:50:33;1999.90;;;999.90;;
43819;SDS011;67762;52.476;6.046;2023-06-22T04:52:59;1999.90;;;999.90;;
43819;SDS011;67762;52.476;6.046;2023-06-22T04:55:24;1999.90;;;999.90;;
43819;SDS011;67762;52.476;6.046;2023-06-22T04:57:50;1999.90;;;999.90;;
43819;SDS011;67762;52.476;6.046;2023-06-22T05:00:19;1999.90;;;999.90;;
43819;SDS011;67762;52.476;6.046;2023-06-22T05:02:48;1999.90;;;999.90;;
43819;SDS011;67762;52.476;6.046;2023-06-22T05:05:14;1999.90;;;999.90;;
43819;SDS011;67762;52.476;6.046;2023-06-22T05:07:49;1999.90;;;999.90;;
43819;SDS011;67762;52.476;6.046;2023-06-22T05:10:18;1999.90;;;999.90;;
43819;SDS011;67762;52.476;6.046;2023-06-22T05:12:45;1999.90;;;999.90;;
43819;SDS011;67762;52.476;6.046;2023-06-22T05:15:11;1999.90;;;999.90;;
43819;SDS011;67762;52.476;6.046;2023-06-22T05:17:37;1999.90;;;999.90;;
43819;SDS011;67762;52.476;6.046;2023-06-22T05:20:11;1999.90;;;999.90;;
43819;SDS011;67762;52.476;6.046;2023-06-22T05:22:38;1999.90;;;999.90;;
43819;SDS011;67762;52.476;6.046;2023-06-22T05:25:08;1999.90;;;999.90;;
43819;SDS011;67762;52.476;6.046;2023-06-22T05:27:34;1999.90;;;999.90;;
43819;SDS011;67762;52.476;6.046;2023-06-22T05:30:08;1999.90;;;999.90;;
43819;SDS011;67762;52.476;6.046;2023-06-22T05:32:35;1999.90;;;999.90;;
43819;SDS011;67762;52.476;6.046;2023-06-22T05:35:01;1999.90;;;999.90;;
43819;SDS011;67762;52.476;6.046;2023-06-22T05:37:28;1999.90;;;999.90;;
43819;SDS011;67762;52.476;6.046;2023-06-22T05:39:54;1999.90;;;999.90;;
43819;SDS011;67762;52.476;6.046;2023-06-22T05:42:20;1999.90;;;999.90;;
43819;SDS011;67762;52.476;6.046;2023-06-22T05:44:47;1999.90;;;999.90;;
43819;SDS011;67762;52.476;6.046;2023-06-22T05:47:13;1999.90;;;999.90;;
43819;SDS011;67762;52.476;6.046;2023-06-22T05:49:38;1999.90;;;999.90;;
43819;SDS011;67762;52.476;6.046;2023-06-22T05:52:04;1999.90;;;999.90;;
43819;SDS011;67762;52.476;6.046;2023-06-22T05:54:30;1999.90;;;999.90;;
43819;SDS011;67762;52.476;6.046;2023-06-22T05:56:56;1999.90;;;999.90;;
43819;SDS011;67762;52.476;6.046;2023-06-22T05:59:21;1999.90;;;999.90;;
43819;SDS011;67762;52.476;6.046;2023-06-22T06:01:47;1999.90;;;999.90;;
43819;SDS011;67762;52.476;6.046;2023-06-22T06:04:17;1999.90;;;999.90;;
43819;SDS011;67762;52.476;6.046;2023-06-22T06:06:43;1999.90;;;999.90;;
43819;SDS011;67762;52.476;6.046;2023-06-22T06:09:09;1999.90;;;999.90;;
43819;SDS011;67762;52.476;6.046;2023-06-22T06:11:34;1999.90;;;999.90;;
43819;SDS011;67762;52.476;6.046;2023-06-22T06:14:00;1999.90;;;999.90;;
43819;SDS011;67762;52.476;6.046;2023-06-22T06:16:26;1999.90;;;999.90;;
43819;SDS011;67762;52.476;6.046;2023-06-22T06:18:51;1999.90;;;999.90;;
43819;SDS011;67762;52.476;6.046;2023-06-22T06:21:18;1999.90;;;999.90;;
43819;SDS011;67762;52.476;6.046;2023-06-22T06:23:44;1999.90;;;999.90;;
43819;SDS011;67762;52.476;6.046;2023-06-22T06:26:10;1999.90;;;999.90;;
43819;SDS011;67762;52.476;6.046;2023-06-22T06:28:35;1999.90;;;999.90;;
43819;SDS011;67762;52.476;6.046;2023-06-22T06:31:01;1999.90;;;999.90;;
43819;SDS011;67762;52.476;6.046;2023-06-22T06:33:27;1999.90;;;999.90;;
43819;SDS011;67762;52.476;6.046;2023-06-22T06:35:52;1999.90;;;999.90;;
43819;SDS011;67762;52.476;6.046;2023-06-22T06:38:18;1999.90;;;999.90;;
43819;SDS011;67762;52.476;6.046;2023-06-22T06:40:44;1999.90;;;999.90;;
43819;SDS011;67762;52.476;6.046;2023-06-22T06:43:10;1999.90;;;999.90;;
43819;SDS011;67762;52.476;6.046;2023-06-22T06:45:36;1999.90;;;999.90;;
43819;SDS011;67762;52.476;6.046;2023-06-22T06:48:01;1999.90;;;999.90;;
43819;SDS011;67762;52.476;6.046;2023-06-22T06:50:27;1999.90;;;999.90;;
43819;SDS011;67762;52.476;6.046;2023-06-22T06:52:53;1999.90;;;999.90;;
43819;SDS011;67762;52.476;6.046;2023-06-22T06:55:19;1999.90;;;999.90;;
43819;SDS011;67762;52.476;6.046;2023-06-22T06:57:45;1999.90;;;999.90;;
43819;SDS011;67762;52.476;6.046;2023-06-22T07:00:14;1999.90;;;999.90;;
43819;SDS011;67762;52.476;6.046;2023-06-22T07:02:41;1999.90;;;999.90;;
43819;SDS011;67762;52.476;6.046;2023-06-22T07:05:11;1999.90;;;999.90;;
43819;SDS011;67762;52.476;6.046;2023-06-22T07:07:37;1999.90;;;999.90;;
43819;SDS011;67762;52.476;6.046;2023-06-22T07:10:04;1999.90;;;999.90;;
43819;SDS011;67762;52.476;6.046;2023-06-22T07:12:31;1999.90;;;999.90;;
43819;SDS011;67762;52.476;6.046;2023-06-22T07:17:29;1999.90;;;999.90;;
43819;SDS011;67762;52.476;6.046;2023-06-22T07:19:55;1999.90;;;999.90;;
43819;SDS011;67762;52.476;6.046;2023-06-22T07:22:21;1999.90;;;999.90;;
43819;SDS011;67762;52.476;6.046;2023-06-22T07:24:47;1999.90;;;999.90;;
43819;SDS011;67762;52.476;6.046;2023-06-22T07:27:12;1999.90;;;999.90;;
43819;SDS011;67762;52.476;6.046;2023-06-22T07:29:38;1999.90;;;999.90;;
43819;SDS011;67762;52.476;6.046;2023-06-22T07:32:06;1999.90;;;999.90;;
43819;SDS011;67762;52.476;6.046;2023-06-22T07:34:31;1999.90;;;999.90;;
43819;SDS011;67762;52.476;6.046;2023-06-22T07:36:58;1999.90;;;999.90;;
43819;SDS011;67762;52.476;6.046;2023-06-22T07:39:24;1518.38;;;767.20;;
43819;SDS011;67762;52.476;6.046;2023-06-22T07:41:51;1999.90;;;999.90;;
43819;SDS011;67762;52.476;6.046;2023-06-22T07:44:17;1999.90;;;999.90;;
43819;SDS011;67762;52.476;6.046;2023-06-22T07:46:43;1999.90;;;999.90;;
43819;SDS011;67762;52.476;6.046;2023-06-22T07:49:08;1999.90;;;999.90;;
43819;SDS011;67762;52.476;6.046;2023-06-22T07:51:34;1999.90;;;999.90;;
43819;SDS011;67762;52.476;6.046;2023-06-22T07:54:00;1999.90;;;999.90;;
43819;SDS011;67762;52.476;6.046;2023-06-22T07:56:26;1999.90;;;999.90;;
43819;SDS011;67762;52.476;6.046;2023-06-22T07:58:52;1999.90;;;999.90;;
43819;SDS011;67762;52.476;6.046;2023-06-22T08:01:18;1999.90;;;999.90;;
43819;SDS011;67762;52.476;6.046;2023-06-22T08:03:49;1999.90;;;999.90;;
43819;SDS011;67762;52.476;6.046;2023-06-22T08:06:15;1999.90;;;999.90;;
43819;SDS011;67762;52.476;6.046;2023-06-22T08:08:41;1999.90;;;999.90;;
43819;SDS011;67762;52.476;6.046;2023-06-22T08:11:08;1999.90;;;999.90;;
43819;SDS011;67762;52.476;6.046;2023-06-22T08:13:34;1085.47;;;579.47;;
43819;SDS011;67762;52.476;6.046;2023-06-22T08:16:00;1999.90;;;999.90;;
43819;SDS011;67762;52.476;6.046;2023-06-22T08:18:26;1999.90;;;999.90;;
43819;SDS011;67762;52.476;6.046;2023-06-22T08:20:52;1999.90;;;999.90;;
43819;SDS011;67762;52.476;6.046;2023-06-22T08:23:17;1999.90;;;999.90;;
43819;SDS011;67762;52.476;6.046;2023-06-22T08:25:43;1999.90;;;999.90;;
43819;SDS011;67762;52.476;6.046;2023-06-22T08:28:09;1999.90;;;999.90;;
43819;SDS011;67762;52.476;6.046;2023-06-22T08:30:34;1999.90;;;999.90;;
43819;SDS011;67762;52.476;6.046;2023-06-22T08:33:00;1999.90;;;999.90;;
43819;SDS011;67762;52.476;6.046;2023-06-22T08:35:26;1999.90;;;999.90;;
43819;SDS011;67762;52.476;6.046;2023-06-22T08:37:51;1999.90;;;999.90;;
43819;SDS011;67762;52.476;6.046;2023-06-22T08:40:19;1999.90;;;999.90;;
43819;SDS011;67762;52.476;6.046;2023-06-22T08:42:46;1999.90;;;999.90;;
43819;SDS011;67762;52.476;6.046;2023-06-22T08:45:12;1999.90;;;999.90;;
43819;SDS011;67762;52.476;6.046;2023-06-22T08:47:39;1062.70;;;557.55;;
43819;SDS011;67762;52.476;6.046;2023-06-22T08:50:06;1999.90;;;999.90;;
43819;SDS011;67762;52.476;6.046;2023-06-22T08:52:34;1999.90;;;999.90;;
43819;SDS011;67762;52.476;6.046;2023-06-22T08:55:00;1999.90;;;999.90;;
43819;SDS011;67762;52.476;6.046;2023-06-22T08:57:26;1999.90;;;999.90;;
43819;SDS011;67762;52.476;6.046;2023-06-22T08:59:52;1999.90;;;999.90;;
43819;SDS011;67762;52.476;6.046;2023-06-22T09:02:18;1999.90;;;999.90;;
43819;SDS011;67762;52.476;6.046;2023-06-22T09:04:47;1999.90;;;999.90;;
43819;SDS011;67762;52.476;6.046;2023-06-22T09:07:14;1999.90;;;999.90;;
43819;SDS011;67762;52.476;6.046;2023-06-22T09:09:39;1999.90;;;999.90;;
43819;SDS011;67762;52.476;6.046;2023-06-22T09:12:05;1999.90;;;999.90;;
43819;SDS011;67762;52.476;6.046;2023-06-22T09:14:31;233.82;;;220.70;;
43819;SDS011;67762;52.476;6.046;2023-06-22T09:16:57;1999.90;;;999.90;;
43819;SDS011;67762;52.476;6.046;2023-06-22T09:19:22;1999.90;;;999.90;;
43819;SDS011;67762;52.476;6.046;2023-06-22T09:21:48;1999.90;;;999.90;;
43819;SDS011;67762;52.476;6.046;2023-06-22T09:24:13;1999.90;;;999.90;;
43819;SDS011;67762;52.476;6.046;2023-06-22T09:26:39;1999.90;;;999.90;;
43819;SDS011;67762;52.476;6.046;2023-06-22T09:29:05;1999.90;;;999.90;;
43819;SDS011;67762;52.476;6.046;2023-06-22T09:31:31;1999.90;;;999.90;;
43819;SDS011;67762;52.476;6.046;2023-06-22T09:33:57;1999.90;;;999.90;;
43819;SDS011;67762;52.476;6.046;2023-06-22T09:36:23;1999.90;;;999.90;;
43819;SDS011;67762;52.476;6.046;2023-06-22T09:38:49;1999.90;;;999.90;;
43819;SDS011;67762;52.476;6.046;2023-06-22T09:41:21;1999.90;;;999.90;;
43819;SDS011;67762;52.476;6.046;2023-06-22T09:43:47;1999.90;;;999.90;;
43819;SDS011;67762;52.476;6.046;2023-06-22T09:46:16;217.18;;;205.10;;
43819;SDS011;67762;52.476;6.046;2023-06-22T09:48:42;154.40;;;145.73;;
43819;SDS011;67762;52.476;6.046;2023-06-22T09:51:08;194.88;;;184.05;;
43819;SDS011;67762;52.476;6.046;2023-06-22T09:53:33;289.67;;;272.20;;
43819;SDS011;67762;52.476;6.046;2023-06-22T09:56:00;173.85;;;164.38;;
43819;SDS011;67762;52.476;6.046;2023-06-22T09:58:27;97.82;;;92.07;;
43819;SDS011;67762;52.476;6.046;2023-06-22T10:00:53;104.38;;;97.80;;
43819;SDS011;67762;52.476;6.046;2023-06-22T10:03:19;95.47;;;89.90;;
43819;SDS011;67762;52.476;6.046;2023-06-22T10:05:45;67.00;;;62.92;;
43819;SDS011;67762;52.476;6.046;2023-06-22T10:08:11;70.32;;;66.00;;
43819;SDS011;67762;52.476;6.046;2023-06-22T10:10:37;85.28;;;80.05;;
43819;SDS011;67762;52.476;6.046;2023-06-22T10:13:07;59.00;;;55.15;;
43819;SDS011;67762;52.476;6.046;2023-06-22T10:15:37;49.63;;;46.25;;
43819;SDS011;67762;52.476;6.046;2023-06-22T10:18:03;76.75;;;71.93;;
43819;SDS011;67762;52.476;6.046;2023-06-22T10:20:29;65.05;;;60.53;;
43819;SDS011;67762;52.476;6.046;2023-06-22T10:22:55;88.68;;;83.38;;
43819;SDS011;67762;52.476;6.046;2023-06-22T10:25:21;103.40;;;97.18;;
43819;SDS011;67762;52.476;6.046;2023-06-22T10:27:47;66.57;;;62.22;;
43819;SDS011;67762;52.476;6.046;2023-06-22T10:30:13;59.95;;;56.13;;
43819;SDS011;67762;52.476;6.046;2023-06-22T10:32:39;106.63;;;100.45;;
43819;SDS011;67762;52.476;6.046;2023-06-22T10:35:05;83.43;;;78.10;;
43819;SDS011;67762;52.476;6.046;2023-06-22T10:37:32;97.13;;;91.13;;
43819;SDS011;67762;52.476;6.046;2023-06-22T10:39:57;75.88;;;71.45;;
43819;SDS011;67762;52.476;6.046;2023-06-22T10:42:23;75.70;;;70.97;;
43819;SDS011;67762;52.476;6.046;2023-06-22T10:44:49;78.32;;;73.68;;
43819;SDS011;67762;52.476;6.046;2023-06-22T10:47:15;59.80;;;56.08;;
43819;SDS011;67762;52.476;6.046;2023-06-22T10:49:41;52.60;;;48.92;;
43819;SDS011;67762;52.476;6.046;2023-06-22T10:52:07;103.10;;;96.95;;
43819;SDS011;67762;52.476;6.046;2023-06-22T10:54:33;77.45;;;72.75;;
43819;SDS011;67762;52.476;6.046;2023-06-22T10:57:01;66.22;;;61.80;;
43819;SDS011;67762;52.476;6.046;2023-06-22T10:59:27;59.70;;;55.65;;
43819;SDS011;67762;52.476;6.046;2023-06-22T11:01:54;78.15;;;73.25;;
43819;SDS011;67762;52.476;6.046;2023-06-22T11:04:21;82.45;;;77.35;;
43819;SDS011;67762;52.476;6.046;2023-06-22T11:06:47;69.60;;;65.35;;
43819;SDS011;67762;52.476;6.046;2023-06-22T11:09:14;80.60;;;75.53;;
43819;SDS011;67762;52.476;6.046;2023-06-22T11:11:44;62.83;;;58.85;;
43819;SDS011;67762;52.476;6.046;2023-06-22T11:14:10;74.80;;;70.20;;
43819;SDS011;67762;52.476;6.046;2023-06-22T11:16:36;98.40;;;92.20;;
43819;SDS011;67762;52.476;6.046;2023-06-22T11:19:01;61.83;;;57.75;;
43819;SDS011;67762;52.476;6.046;2023-06-22T11:21:28;70.03;;;65.70;;
43819;SDS011;67762;52.476;6.046;2023-06-22T11:23:54;92.00;;;86.72;;
43819;SDS011;67762;52.476;6.046;2023-06-22T11:26:19;73.85;;;69.18;;
43819;SDS011;67762;52.476;6.046;2023-06-22T11:28:46;61.42;;;57.60;;
43819;SDS011;67762;52.476;6.046;2023-06-22T11:31:12;76.13;;;71.38;;
43819;SDS011;67762;52.476;6.046;2023-06-22T11:33:37;101.90;;;95.93;;
43819;SDS011;67762;52.476;6.046;2023-06-22T11:36:03;73.00;;;66.22;;
43819;SDS011;67762;52.476;6.046;2023-06-22T11:38:29;66.53;;;61.95;;
43819;SDS011;67762;52.476;6.046;2023-06-22T11:40:57;123.65;;;115.40;;
43819;SDS011;67762;52.476;6.046;2023-06-22T11:43:23;56.33;;;52.50;;
43819;SDS011;67762;52.476;6.046;2023-06-22T11:45:50;90.90;;;84.43;;
43819;SDS011;67762;52.476;6.046;2023-06-22T11:48:16;77.22;;;72.63;;
43819;SDS011;67762;52.476;6.046;2023-06-22T11:50:42;59.90;;;55.95;;
43819;SDS011;67762;52.476;6.046;2023-06-22T11:53:07;63.72;;;59.72;;
43819;SDS011;67762;52.476;6.046;2023-06-22T11:55:33;75.05;;;70.60;;
43819;SDS011;67762;52.476;6.046;2023-06-22T11:57:59;62.95;;;58.83;;
43819;SDS011;67762;52.476;6.046;2023-06-22T12:00:28;78.07;;;73.55;;
43819;SDS011;67762;52.476;6.046;2023-06-22T12:02:54;64.60;;;60.78;;
43819;SDS011;67762;52.476;6.046;2023-06-22T12:05:20;65.80;;;61.50;;
43819;SDS011;67762;52.476;6.046;2023-06-22T12:07:46;69.28;;;65.13;;
43819;SDS011;67762;52.476;6.046;2023-06-22T12:10:12;59.53;;;55.83;;
43819;SDS011;67762;52.476;6.046;2023-06-22T12:12:38;78.45;;;73.35;;
43819;SDS011;67762;52.476;6.046;2023-06-22T12:15:04;60.08;;;55.90;;
43819;SDS011;67762;52.476;6.046;2023-06-22T12:17:31;61.13;;;57.47;;
43819;SDS011;67762;52.476;6.046;2023-06-22T12:19:56;55.55;;;52.25;;
43819;SDS011;67762;52.476;6.046;2023-06-22T12:22:22;74.75;;;70.28;;
43819;SDS011;67762;52.476;6.046;2023-06-22T12:24:47;67.03;;;63.03;;
43819;SDS011;67762;52.476;6.046;2023-06-22T12:27:13;55.25;;;51.85;;
43819;SDS011;67762;52.476;6.046;2023-06-22T12:29:41;63.55;;;59.83;;
43819;SDS011;67762;52.476;6.046;2023-06-22T12:32:07;59.78;;;56.13;;
43819;SDS011;67762;52.476;6.046;2023-06-22T12:34:33;54.00;;;50.67;;
43819;SDS011;67762;52.476;6.046;2023-06-22T12:36:58;56.78;;;53.30;;
43819;SDS011;67762;52.476;6.046;2023-06-22T12:39:24;53.00;;;49.83;;
43819;SDS011;67762;52.476;6.046;2023-06-22T12:41:49;48.67;;;45.65;;
43819;SDS011;67762;52.476;6.046;2023-06-22T12:44:15;111.32;;;104.07;;
43819;SDS011;67762;52.476;6.046;2023-06-22T12:46:41;56.25;;;52.88;;
43819;SDS011;67762;52.476;6.046;2023-06-22T12:49:07;65.70;;;61.72;;
43819;SDS011;67762;52.476;6.046;2023-06-22T12:51:32;64.55;;;60.20;;
43819;SDS011;67762;52.476;6.046;2023-06-22T12:53:59;59.83;;;56.25;;
43819;SDS011;67762;52.476;6.046;2023-06-22T12:56:24;58.63;;;55.25;;
43819;SDS011;67762;52.476;6.046;2023-06-22T12:58:50;50.25;;;47.40;;
43819;SDS011;67762;52.476;6.046;2023-06-22T13:01:16;42.88;;;40.40;;
43819;SDS011;67762;52.476;6.046;2023-06-22T13:03:43;49.58;;;46.65;;
43819;SDS011;67762;52.476;6.046;2023-06-22T13:06:09;55.80;;;52.60;;
43819;SDS011;67762;52.476;6.046;2023-06-22T13:08:34;60.88;;;57.42;;
43819;SDS011;67762;52.476;6.046;2023-06-22T13:11:00;58.90;;;55.65;;
43819;SDS011;67762;52.476;6.046;2023-06-22T13:13:26;54.60;;;51.50;;
43819;SDS011;67762;52.476;6.046;2023-06-22T13:15:55;50.60;;;47.63;;
43819;SDS011;67762;52.476;6.046;2023-06-22T13:18:20;52.42;;;49.47;;
43819;SDS011;67762;52.476;6.046;2023-06-22T13:20:46;50.80;;;47.72;;
43819;SDS011;67762;52.476;6.046;2023-06-22T13:23:12;57.78;;;54.20;;
43819;SDS011;67762;52.476;6.046;2023-06-22T13:25:38;50.40;;;47.50;;
43819;SDS011;67762;52.476;6.046;2023-06-22T13:28:04;147.27;;;139.57;;
43819;SDS011;67762;52.476;6.046;2023-06-22T13:30:29;107.47;;;101.78;;
43819;SDS011;67762;52.476;6.046;2023-06-22T13:32:57;96.13;;;91.03;;
43819;SDS011;67762;52.476;6.046;2023-06-22T13:35:22;114.95;;;108.72;;
43819;SDS011;67762;52.476;6.046;2023-06-22T13:37:48;174.75;;;165.68;;
43819;SDS011;67762;52.476;6.046;2023-06-22T13:40:14;136.43;;;129.18;;
43819;SDS011;67762;52.476;6.046;2023-06-22T13:42:39;1547.30;;;794.88;;
43819;SDS011;67762;52.476;6.046;2023-06-22T13:45:06;166.10;;;157.35;;
43819;SDS011;67762;52.476;6.046;2023-06-22T13:47:32;1999.90;;;999.90;;
43819;SDS011;67762;52.476;6.046;2023-06-22T13:49:58;1999.90;;;999.90;;
43819;SDS011;67762;52.476;6.046;2023-06-22T13:52:24;1999.90;;;999.90;;
43819;SDS011;67762;52.476;6.046;2023-06-22T13:54:49;1999.90;;;999.90;;
43819;SDS011;67762;52.476;6.046;2023-06-22T13:57:15;714.53;;;453.35;;
43819;SDS011;67762;52.476;6.046;2023-06-22T13:59:41;1999.90;;;999.90;;
43819;SDS011;67762;52.476;6.046;2023-06-22T14:02:06;1999.90;;;999.90;;